createdAt,value
2019-05-14T00:02:21.240Z,50.60
2019-05-14T00:04:51.133Z,52.60
2019-05-14T00:07:19.121Z,50.50
2019-05-14T00:09:47.282Z,51.70
2019-05-14T00:12:15.312Z,50.50
2019-05-14T00:14:43.938Z,53.60
2019-05-14T00:17:12.742Z,52.20
2019-05-14T00:19:42.122Z,50.50
2019-05-14T00:22:11.626Z,52.10
2019-05-14T00:24:41.657Z,51.60
2019-05-14T00:27:11.445Z,53.00
2019-05-14T00:29:41.879Z,52.10
2019-05-14T00:32:11.272Z,50.90
2019-05-14T00:34:39.462Z,51.60
2019-05-14T00:37:07.619Z,55.20
2019-05-14T00:39:35.487Z,53.00
2019-05-14T00:42:03.460Z,54.80
2019-05-14T00:44:32.393Z,53.60
2019-05-14T00:47:02.131Z,52.70
2019-05-14T00:49:31.696Z,56.80
2019-05-14T00:52:02.060Z,54.90
2019-05-14T00:54:29.533Z,55.20
2019-05-14T00:56:57.459Z,54.00
2019-05-14T00:59:25.619Z,52.50
2019-05-14T01:01:53.639Z,54.20
2019-05-14T01:04:22.285Z,52.40
2019-05-14T01:06:51.163Z,54.60
2019-05-14T01:09:19.292Z,55.40
2019-05-14T01:11:47.470Z,57.10
2019-05-14T01:14:15.947Z,57.70
2019-05-14T01:16:43.984Z,54.20
2019-05-14T01:19:12.382Z,57.20
2019-05-14T01:21:41.747Z,55.20
2019-05-14T01:24:09.889Z,54.10
2019-05-14T01:26:37.869Z,57.20
2019-05-14T01:29:05.836Z,51.00
2019-05-14T01:31:33.729Z,52.80
2019-05-14T01:34:02.153Z,52.50
2019-05-14T01:36:32.039Z,53.80
2019-05-14T01:39:01.841Z,45.80
2019-05-14T01:41:31.720Z,29.00
2019-05-14T01:44:01.778Z,29.10
2019-05-14T01:46:31.647Z,32.70
2019-05-14T01:49:01.559Z,30.80
2019-05-14T01:51:31.544Z,28.60
2019-05-14T01:54:01.479Z,24.00
2019-05-14T01:56:31.711Z,27.30
2019-05-14T01:59:01.486Z,31.20
2019-05-14T02:01:31.374Z,30.20
2019-05-14T02:03:59.084Z,30.60
2019-05-14T02:06:26.973Z,34.80
2019-05-14T02:08:54.921Z,31.50
2019-05-14T02:11:22.787Z,33.00
2019-05-14T02:13:51.912Z,38.70
2019-05-14T02:16:23.860Z,30.20
2019-05-14T02:18:52.364Z,31.00
2019-05-14T02:21:22.669Z,28.60
2019-05-14T02:23:51.435Z,28.50
2019-05-14T02:26:21.916Z,29.80
2019-05-14T02:28:54.906Z,27.20
2019-05-14T02:31:22.784Z,23.80
2019-05-14T02:33:50.836Z,23.30
2019-05-14T02:36:19.627Z,25.80
2019-05-14T02:38:49.353Z,26.80
2019-05-14T02:41:19.677Z,29.20
2019-05-14T02:43:50.229Z,26.50
2019-05-14T02:46:21.727Z,26.00
2019-05-14T02:48:49.110Z,26.60
2019-05-14T02:51:19.896Z,22.70
2019-05-14T02:53:49.748Z,22.80
2019-05-14T02:56:20.195Z,21.90
2019-05-14T02:58:49.867Z,22.70
2019-05-14T03:01:19.754Z,22.30
2019-05-14T03:03:49.295Z,23.20
2019-05-14T03:06:19.765Z,27.60
2019-05-14T03:08:49.219Z,27.10
2019-05-14T03:11:16.329Z,25.60
2019-05-14T03:13:44.305Z,22.80
2019-05-14T03:16:26.174Z,23.00
2019-05-14T03:18:42.606Z,23.20
2019-05-14T03:21:10.466Z,22.10
2019-05-14T03:23:39.214Z,21.70
2019-05-14T03:26:09.676Z,22.20
2019-05-14T03:28:39.895Z,21.60
2019-05-14T03:31:12.150Z,21.80
2019-05-14T03:33:43.122Z,23.60
2019-05-14T03:36:11.343Z,24.00
2019-05-14T03:38:39.575Z,21.70
2019-05-14T03:41:09.756Z,21.70
2019-05-14T03:43:39.146Z,21.50
2019-05-14T03:46:09.681Z,21.40
2019-05-14T03:48:39.939Z,21.60
2019-05-14T03:51:09.037Z,21.70
2019-05-14T03:53:52.281Z,22.50
2019-05-14T03:56:06.374Z,22.40
2019-05-14T03:58:34.391Z,23.80
2019-05-14T04:01:02.659Z,23.90
2019-05-14T04:03:31.948Z,24.20
2019-05-14T04:06:01.705Z,24.80
2019-05-14T04:08:31.589Z,23.50
2019-05-14T04:11:01.237Z,23.80
2019-05-14T04:13:31.508Z,24.90
2019-05-14T04:16:02.309Z,23.90
2019-05-14T04:18:35.298Z,23.60
2019-05-14T04:21:03.981Z,24.00
2019-05-14T04:23:33.560Z,24.10
2019-05-14T04:26:04.002Z,23.70
2019-05-14T04:28:34.609Z,21.80
2019-05-14T04:31:04.261Z,21.40
2019-05-14T04:33:35.092Z,20.70
2019-05-14T04:36:03.132Z,20.90
2019-05-14T04:38:31.367Z,21.00
2019-05-14T04:41:00.046Z,21.00
2019-05-14T04:43:29.359Z,21.20
2019-05-14T04:45:59.231Z,21.30
2019-05-14T04:48:36.929Z,21.50
2019-05-14T04:51:00.457Z,21.10
2019-05-14T04:53:30.698Z,21.30
2019-05-14T04:56:00.047Z,22.50
2019-05-14T04:58:29.750Z,20.70
2019-05-14T05:01:00.142Z,21.60
2019-05-14T05:03:30.874Z,20.90
2019-05-14T05:05:58.914Z,20.90
2019-05-14T05:08:30.564Z,21.10
2019-05-14T05:11:00.010Z,20.70
2019-05-14T05:13:29.123Z,20.50
2019-05-14T05:15:59.371Z,20.10
2019-05-14T05:18:29.606Z,20.60
2019-05-14T05:20:58.420Z,20.80
2019-05-14T05:23:28.222Z,20.10
2019-05-14T05:25:58.510Z,19.60
2019-05-14T05:28:28.348Z,19.50
2019-05-14T05:30:58.463Z,20.10
2019-05-14T05:33:26.583Z,20.40
2019-05-14T05:35:55.260Z,20.30
2019-05-14T05:38:23.366Z,18.00
2019-05-14T05:40:51.255Z,16.10
2019-05-14T05:43:19.352Z,15.80
2019-05-14T05:45:48.594Z,15.60
2019-05-14T05:48:18.753Z,16.00
2019-05-14T05:50:48.454Z,15.40
2019-05-14T05:53:16.677Z,15.00
2019-05-14T05:55:44.559Z,15.20
2019-05-14T05:58:12.682Z,15.30
2019-05-14T06:00:41.569Z,15.00
2019-05-14T06:03:12.712Z,14.90
2019-05-14T06:05:40.742Z,15.20
2019-05-14T06:08:09.145Z,14.90
2019-05-14T06:10:39.720Z,14.70
2019-05-14T06:13:08.899Z,14.20
2019-05-14T06:15:45.710Z,14.00
2019-05-14T06:18:17.154Z,14.70
2019-05-14T06:20:38.740Z,14.20
2019-05-14T06:23:08.433Z,13.60
2019-05-14T06:25:39.764Z,13.90
2019-05-14T06:28:08.659Z,14.50
2019-05-14T06:30:39.706Z,14.20
2019-05-14T06:33:09.229Z,14.70
2019-05-14T06:35:39.618Z,14.00
2019-05-14T06:38:08.894Z,14.60
2019-05-14T06:40:39.573Z,14.30
2019-05-14T06:43:09.041Z,12.10
2019-05-14T06:45:38.888Z,12.60
2019-05-14T06:48:08.663Z,12.50
2019-05-14T06:50:38.960Z,12.30
2019-05-14T06:53:08.499Z,12.30
2019-05-14T06:55:38.650Z,12.80
2019-05-14T06:58:06.388Z,13.30
2019-05-14T07:00:35.031Z,13.00
2019-05-14T07:03:03.037Z,12.60
2019-05-14T07:05:30.956Z,12.60
2019-05-14T07:07:59.808Z,13.10
2019-05-14T07:10:28.750Z,11.20
2019-05-14T07:12:59.285Z,12.30
2019-05-14T07:15:29.054Z,11.40
2019-05-14T07:17:58.384Z,10.70
2019-05-14T07:20:28.268Z,11.70
2019-05-14T07:22:58.523Z,12.50
2019-05-14T07:25:28.169Z,12.50
2019-05-14T07:27:58.186Z,12.30
2019-05-14T07:30:29.023Z,11.80
2019-05-14T07:32:58.856Z,13.50
2019-05-14T07:35:28.831Z,12.30
2019-05-14T07:37:59.014Z,12.20
2019-05-14T07:40:29.042Z,12.40
2019-05-14T07:42:58.344Z,12.50
2019-05-14T07:45:28.751Z,14.50
2019-05-14T07:47:58.292Z,12.70
2019-05-14T07:50:28.812Z,13.40
2019-05-14T07:52:58.504Z,13.60
2019-05-14T07:55:26.217Z,12.70
2019-05-14T07:57:54.150Z,11.90
2019-05-14T08:00:22.212Z,11.80
2019-05-14T08:02:50.273Z,12.30
2019-05-14T08:05:18.366Z,12.40
2019-05-14T08:07:48.096Z,12.30
2019-05-14T08:10:18.519Z,12.60
2019-05-14T08:12:48.338Z,12.30
2019-05-14T08:15:21.598Z,12.10
2019-05-14T08:17:48.225Z,12.50
2019-05-14T08:20:18.245Z,13.00
2019-05-14T08:22:48.823Z,12.70
2019-05-14T08:25:16.217Z,12.50
2019-05-14T08:27:44.200Z,12.30
2019-05-14T08:30:13.121Z,13.00
2019-05-14T08:32:41.148Z,13.00
2019-05-14T08:35:09.801Z,12.30
2019-05-14T08:37:38.667Z,12.30
2019-05-14T08:40:09.429Z,11.50
2019-05-14T08:42:38.334Z,12.20
2019-05-14T08:45:10.584Z,12.50
2019-05-14T08:47:39.031Z,13.10
2019-05-14T08:50:09.213Z,12.50
2019-05-14T08:52:39.273Z,13.10
2019-05-14T08:55:11.037Z,12.20
2019-05-14T08:57:38.850Z,11.50
2019-05-14T09:00:13.764Z,11.40
2019-05-14T09:02:39.278Z,12.50
2019-05-14T09:05:10.338Z,11.70
2019-05-14T09:07:38.347Z,12.60
2019-05-14T09:10:08.711Z,12.30
2019-05-14T09:12:38.851Z,12.20
2019-05-14T09:15:09.461Z,12.50
2019-05-14T09:17:39.057Z,11.40
2019-05-14T09:20:08.484Z,11.40
2019-05-14T09:22:39.540Z,12.00
2019-05-14T09:25:08.460Z,12.10
2019-05-14T09:27:38.769Z,12.20
2019-05-14T09:30:09.628Z,11.40
2019-05-14T09:32:38.922Z,11.60
2019-05-14T09:35:09.830Z,10.70
2019-05-14T09:37:39.643Z,10.90
2019-05-14T09:40:08.757Z,10.70
2019-05-14T09:42:39.211Z,11.00
2019-05-14T09:45:11.111Z,10.80
2019-05-14T09:47:38.796Z,11.20
2019-05-14T09:50:16.371Z,10.80
2019-05-14T09:52:39.120Z,10.80
2019-05-14T09:55:09.312Z,10.50
2019-05-14T09:57:38.784Z,10.80
2019-05-14T10:00:09.161Z,10.80
2019-05-14T10:02:39.388Z,11.00
2019-05-14T10:05:09.039Z,10.60
2019-05-14T10:07:39.299Z,10.60
2019-05-14T10:10:08.233Z,11.20
2019-05-14T10:12:48.137Z,10.30
2019-05-14T10:15:08.864Z,11.50
2019-05-14T10:17:39.273Z,11.70
2019-05-14T10:20:09.095Z,10.90
2019-05-14T10:22:39.513Z,9.60
2019-05-14T10:25:09.148Z,10.50
2019-05-14T10:27:37.785Z,9.80
2019-05-14T10:30:09.966Z,11.00
2019-05-14T10:32:36.603Z,9.90
2019-05-14T10:35:04.957Z,10.40
2019-05-14T10:37:33.018Z,10.10
2019-05-14T10:40:00.988Z,9.60
2019-05-14T10:42:29.400Z,10.80
2019-05-14T10:44:58.693Z,10.70
2019-05-14T10:47:29.055Z,11.20
2019-05-14T10:49:58.378Z,10.70
2019-05-14T10:52:28.882Z,10.10
2019-05-14T10:54:59.082Z,11.40
2019-05-14T10:57:28.860Z,11.30
2019-05-14T10:59:58.972Z,11.10
2019-05-14T11:02:29.028Z,11.30
2019-05-14T11:04:58.658Z,10.50
2019-05-14T11:07:29.078Z,10.50
2019-05-14T11:09:56.727Z,10.70
2019-05-14T11:12:25.165Z,10.30
2019-05-14T11:14:53.224Z,11.00
2019-05-14T11:17:21.248Z,10.70
2019-05-14T11:19:49.171Z,10.80
2019-05-14T11:22:18.408Z,11.00
2019-05-14T11:24:49.193Z,10.70
2019-05-14T11:27:18.638Z,10.90
2019-05-14T11:29:48.896Z,10.50
2019-05-14T11:32:18.459Z,10.40
2019-05-14T11:34:46.415Z,9.90
2019-05-14T11:37:14.647Z,10.40
2019-05-14T11:39:42.645Z,11.50
2019-05-14T11:42:10.742Z,10.60
2019-05-14T11:44:38.659Z,9.70
2019-05-14T11:47:08.780Z,10.20
2019-05-14T11:49:37.796Z,9.70
2019-05-14T11:52:08.706Z,10.40
2019-05-14T11:54:40.616Z,11.10
2019-05-14T11:57:11.141Z,9.30
2019-05-14T11:59:36.214Z,9.90
2019-05-14T12:02:04.646Z,11.40
2019-05-14T12:04:32.665Z,9.90
2019-05-14T12:07:01.139Z,10.00
2019-05-14T12:09:29.238Z,10.50
2019-05-14T12:11:58.690Z,10.40
2019-05-14T12:14:27.994Z,9.70
2019-05-14T12:16:56.073Z,9.80
2019-05-14T12:19:24.040Z,9.60
2019-05-14T12:22:03.609Z,10.30
2019-05-14T12:24:21.870Z,8.30
2019-05-14T12:26:50.164Z,8.80
2019-05-14T12:29:18.102Z,9.30
2019-05-14T12:31:50.565Z,10.10
2019-05-14T12:34:18.619Z,10.40
2019-05-14T12:36:49.328Z,10.50
2019-05-14T12:39:18.766Z,10.00
2019-05-14T12:41:48.864Z,9.60
2019-05-14T12:44:19.383Z,9.40
2019-05-14T12:46:48.753Z,9.70
2019-05-14T12:49:18.734Z,9.40
2019-05-14T12:51:49.145Z,9.00
2019-05-14T12:54:16.473Z,10.20
2019-05-14T12:56:44.397Z,10.20
2019-05-14T12:59:12.641Z,10.00
2019-05-14T13:01:40.937Z,9.60
2019-05-14T13:04:08.956Z,10.50
2019-05-14T13:06:39.920Z,9.80
2019-05-14T13:09:09.348Z,9.00
2019-05-14T13:11:41.360Z,9.80
2019-05-14T13:14:07.375Z,10.60
2019-05-14T13:16:35.541Z,10.70
2019-05-14T13:19:03.620Z,10.60
2019-05-14T13:21:32.128Z,9.50
2019-05-14T13:24:00.323Z,11.10
2019-05-14T13:26:29.639Z,11.00
2019-05-14T13:28:58.850Z,9.80
2019-05-14T13:31:29.334Z,8.90
2019-05-14T13:33:59.373Z,10.10
2019-05-14T13:36:28.738Z,10.00
2019-05-14T13:38:59.608Z,9.70
2019-05-14T13:41:28.459Z,11.30
2019-05-14T13:43:58.715Z,10.90
2019-05-14T13:46:28.641Z,10.90
2019-05-14T13:48:59.193Z,10.40
2019-05-14T13:51:32.401Z,10.10
2019-05-14T13:53:58.995Z,10.50
2019-05-14T13:56:28.379Z,9.70
2019-05-14T13:58:59.130Z,11.20
2019-05-14T14:01:29.489Z,9.90
2019-05-14T14:04:06.218Z,9.60
2019-05-14T14:06:26.321Z,10.40
2019-05-14T14:08:54.763Z,11.40
2019-05-14T14:11:22.876Z,11.10
2019-05-14T14:13:51.490Z,11.20
2019-05-14T14:16:20.074Z,10.00
2019-05-14T14:18:50.165Z,9.20
2019-05-14T14:21:20.689Z,10.20
2019-05-14T14:23:49.699Z,9.30
2019-05-14T14:26:18.656Z,9.80
2019-05-14T14:28:49.280Z,9.50
2019-05-14T14:31:18.963Z,9.80
2019-05-14T14:33:48.661Z,10.10
2019-05-14T14:36:19.604Z,10.10
2019-05-14T14:38:49.461Z,10.10
2019-05-14T14:41:19.372Z,11.00
2019-05-14T14:43:53.234Z,11.10
2019-05-14T14:46:19.573Z,10.80
2019-05-14T14:48:49.336Z,10.30
2019-05-14T14:51:19.312Z,11.10
2019-05-14T14:53:59.369Z,10.90
2019-05-14T14:56:18.951Z,11.40
2019-05-14T14:58:49.354Z,11.10
2019-05-14T15:01:19.572Z,11.10
2019-05-14T15:03:49.623Z,10.40
2019-05-14T15:06:17.238Z,10.90
2019-05-14T15:08:45.247Z,10.10
2019-05-14T15:11:13.724Z,11.30
2019-05-14T15:13:41.777Z,10.80
2019-05-14T15:16:13.514Z,10.40
2019-05-14T15:18:39.833Z,11.30
2019-05-14T15:21:09.715Z,10.90
2019-05-14T15:23:42.623Z,10.30
2019-05-14T15:26:11.562Z,10.30
2019-05-14T15:28:38.675Z,11.20
2019-05-14T15:31:08.825Z,11.50
2019-05-14T15:33:37.024Z,10.80
2019-05-14T15:36:05.033Z,11.50
2019-05-14T15:38:32.974Z,11.50
2019-05-14T15:41:00.975Z,11.40
2019-05-14T15:43:29.183Z,11.50
2019-05-14T15:45:58.924Z,10.60
2019-05-14T15:48:27.120Z,10.30
2019-05-14T15:50:55.035Z,10.30
2019-05-14T15:53:23.003Z,11.60
2019-05-14T15:55:51.875Z,10.30
2019-05-14T15:58:21.286Z,11.10
2019-05-14T16:00:49.756Z,10.90
2019-05-14T16:03:18.821Z,11.70
2019-05-14T16:05:48.849Z,11.20
2019-05-14T16:08:18.746Z,11.10
2019-05-14T16:10:48.126Z,10.80
2019-05-14T16:13:16.032Z,10.60
2019-05-14T16:15:43.956Z,11.40
2019-05-14T16:18:18.459Z,11.50
2019-05-14T16:20:42.367Z,10.80
2019-05-14T16:23:11.100Z,10.50
2019-05-14T16:25:39.839Z,11.10
2019-05-14T16:28:08.758Z,13.20
2019-05-14T16:30:39.756Z,10.30
2019-05-14T16:33:09.232Z,10.90
2019-05-14T16:35:39.101Z,12.20
2019-05-14T16:38:08.366Z,11.10
2019-05-14T16:40:39.273Z,10.70
2019-05-14T16:43:06.931Z,11.50
2019-05-14T16:45:34.900Z,11.60
2019-05-14T16:48:03.385Z,10.90
2019-05-14T16:50:31.629Z,11.20
2019-05-14T16:52:59.969Z,11.20
2019-05-14T16:55:30.689Z,11.40
2019-05-14T16:57:58.709Z,11.30
2019-05-14T17:00:29.205Z,11.40
2019-05-14T17:02:59.016Z,11.20
2019-05-14T17:05:29.937Z,11.10
2019-05-14T17:07:58.692Z,11.20
2019-05-14T17:10:28.618Z,11.50
2019-05-14T17:13:01.376Z,11.10
2019-05-14T17:15:28.853Z,11.10
2019-05-14T17:17:59.684Z,11.00
2019-05-14T17:20:27.337Z,10.70
2019-05-14T17:22:56.042Z,10.40
2019-05-14T17:25:26.999Z,10.80
2019-05-14T17:27:55.007Z,10.90
2019-05-14T17:30:23.271Z,11.30
2019-05-14T17:32:51.332Z,11.20
2019-05-14T17:35:19.838Z,11.40
2019-05-14T17:37:48.520Z,11.30
2019-05-14T17:40:16.775Z,10.80
2019-05-14T17:42:48.550Z,10.70
2019-05-14T17:45:16.312Z,10.60
2019-05-14T17:47:44.533Z,10.60
2019-05-14T17:50:13.893Z,10.20
2019-05-14T17:52:45.413Z,10.30
2019-05-14T17:55:14.194Z,10.50
2019-05-14T17:57:47.245Z,10.30
2019-05-14T18:00:18.148Z,10.90
2019-05-14T18:02:48.535Z,10.90
2019-05-14T18:05:18.639Z,11.10
